createdAt,value
2023-05-03T00:00:24.059Z,9.72
2023-05-03T00:03:13.889Z,9.70
2023-05-03T00:05:42.411Z,9.67
2023-05-03T00:08:10.924Z,9.66
2023-05-03T00:10:39.480Z,9.63
2023-05-03T00:17:13.686Z,9.61
2023-05-03T00:19:42.915Z,9.60
2023-05-03T00:22:12.902Z,9.55
2023-05-03T00:24:41.412Z,9.53
2023-05-03T00:27:09.961Z,9.55
2023-05-03T00:29:38.431Z,9.55
2023-05-03T00:32:08.118Z,9.53
2023-05-03T00:34:40.296Z,9.50
2023-05-03T00:37:09.659Z,9.52
2023-05-03T00:39:38.605Z,9.54
2023-05-03T00:42:07.375Z,9.54
2023-05-03T00:44:35.822Z,9.57
2023-05-03T00:47:04.916Z,9.61
2023-05-03T00:49:36.315Z,9.61
2023-05-03T00:52:07.727Z,9.63
2023-05-03T00:54:39.279Z,9.67
2023-05-03T00:57:10.302Z,9.63
2023-05-03T00:59:42.437Z,9.57
2023-05-03T01:02:13.322Z,9.53
2023-05-03T01:04:44.019Z,9.53
2023-05-03T01:07:48.278Z,9.48
2023-05-03T01:10:59.314Z,9.43
2023-05-03T01:14:19.314Z,9.39
2023-05-03T01:16:55.301Z,9.32
2023-05-03T01:19:34.332Z,9.30
2023-05-03T01:22:45.903Z,9.28
2023-05-03T01:25:17.389Z,9.20
2023-05-03T01:27:47.676Z,9.14
2023-05-03T01:30:17.348Z,9.10
2023-05-03T01:33:22.347Z,9.05
2023-05-03T01:36:00.906Z,9.00
2023-05-03T01:38:38.368Z,8.95
2023-05-03T01:41:12.774Z,8.93
2023-05-03T01:43:44.382Z,8.92
2023-05-03T01:46:14.354Z,8.94
2023-05-03T01:56:47.190Z,8.94
2023-05-03T01:59:15.897Z,8.92
2023-05-03T02:01:44.222Z,8.89
2023-05-03T02:04:12.756Z,8.86
2023-05-03T02:06:41.183Z,8.85
2023-05-03T02:09:09.784Z,8.84
2023-05-03T02:11:38.029Z,8.82
